Time;durP1;ratioP1;P1;durP2;ratioP2;P2;SDS_P1;SDS_P2;PMS_P1;PMS_P2;Temp;Humidity;BMP_temperature;BMP_pressure;BME280_temperature;BME280_humidity;BME280_pressure;Samples;Min_cycle;Max_cycle;Signal;HPM_P1;HPM_P2
2021/01/14 00:00:04;;;;;;;4.23;3.50;;;3.20;99.90;;;;;;5025458;28;20392;-80
2021/01/14 00:02:29;;;;;;;3.10;2.87;;;3.20;99.90;;;;;;5025565;28;20399;-80
2021/01/14 00:04:55;;;;;;;3.20;2.90;;;3.20;99.90;;;;;;5025313;28;20431;-80
2021/01/14 00:07:21;;;;;;;5.60;3.70;;;3.00;99.90;;;;;;5042951;28;20164;-80
2021/01/14 00:09:47;;;;;;;9.73;4.57;;;3.10;99.90;;;;;;4992961;28;20184;-81
2021/01/14 00:12:13;;;;;;;3.20;3.00;;;3.10;99.90;;;;;;5025640;28;20195;-79
2021/01/14 00:14:39;;;;;;;8.67;5.73;;;3.20;99.90;;;;;;5025283;28;20472;-81
2021/01/14 00:17:05;;;;;;;7.37;3.77;;;3.30;99.90;;;;;;5042635;28;20180;-81
2021/01/14 00:19:31;;;;;;;9.53;4.30;;;3.30;99.90;;;;;;5042275;28;20400;-79
2021/01/14 00:21:57;;;;;;;7.40;4.17;;;3.30;99.90;;;;;;5025578;28;20195;-80
2021/01/14 00:24:25;;;;;;;7.53;4.20;;;3.40;99.90;;;;;;5008934;28;20204;-80
2021/01/14 00:26:51;;;;;;;4.83;4.43;;;3.40;99.90;;;;;;5042486;28;20237;-80
2021/01/14 00:29:17;;;;;;;4.80;4.40;;;3.40;99.90;;;;;;5025050;28;20374;-80
2021/01/14 00:31:42;;;;;;;4.00;3.63;;;3.40;99.90;;;;;;5026617;28;20511;-80
2021/01/14 00:34:09;;;;;;;4.23;3.83;;;3.30;99.90;;;;;;5042695;28;20516;-81
2021/01/14 00:39:24;;;;;;;6.93;4.63;;;3.30;99.90;;;;;;5042726;28;20430;-81
2021/01/14 00:41:51;;;;;;;7.70;5.33;;;3.20;99.90;;;;;;5024470;28;20442;-81
2021/01/14 00:44:18;;;;;;;6.77;4.47;;;3.20;99.90;;;;;;5024177;28;20486;-80
2021/01/14 00:46:44;;;;;;;4.10;3.70;;;3.10;99.90;;;;;;5024116;28;20427;-78
2021/01/14 00:49:10;;;;;;;6.67;3.80;;;3.10;99.90;;;;;;5042386;28;20377;-81
2021/01/14 00:51:36;;;;;;;6.67;5.60;;;3.00;99.90;;;;;;5042022;28;20404;-81
2021/01/14 00:54:06;;;;;;;4.07;3.10;;;3.00;99.90;;;;;;5042267;28;20165;-81
2021/01/14 00:56:34;;;;;;;14.37;4.80;;;3.00;99.90;;;;;;5041741;28;20492;-81
2021/01/14 00:59:01;;;;;;;6.60;3.73;;;2.90;99.90;;;;;;5008986;28;20861;-79
2021/01/14 01:01:28;;;;;;;9.20;2.93;;;2.90;99.90;;;;;;5041620;28;20853;-80
2021/01/14 01:03:54;;;;;;;3.20;2.90;;;2.90;99.90;;;;;;5024545;28;20374;-81
2021/01/14 01:06:21;;;;;;;3.63;3.33;;;2.90;99.90;;;;;;5042298;28;20965;-80
2021/01/14 01:08:48;;;;;;;3.00;2.80;;;2.90;99.90;;;;;;5024629;28;20474;-80
2021/01/14 01:11:15;;;;;;;4.77;4.37;;;2.90;99.90;;;;;;5024556;28;20398;-80
2021/01/14 01:13:41;;;;;;;3.33;3.03;;;2.90;99.90;;;;;;5041529;28;20489;-80
2021/01/14 01:16:07;;;;;;;4.83;3.20;;;2.80;99.90;;;;;;5041043;28;20399;-80
2021/01/14 01:18:33;;;;;;;2.47;2.27;;;2.80;99.90;;;;;;5042016;28;20199;-80
2021/01/14 01:21:04;;;;;;;3.60;3.03;;;2.90;99.90;;;;;;5041916;28;20450;-80
2021/01/14 01:23:30;;;;;;;8.10;2.87;;;2.70;99.90;;;;;;5042767;28;20407;-81
2021/01/14 01:25:55;;;;;;;4.03;3.33;;;2.80;99.90;;;;;;5024340;28;20744;-79
2021/01/14 01:28:21;;;;;;;2.90;2.70;;;2.80;99.90;;;;;;5024607;28;20633;-80
2021/01/14 01:30:47;;;;;;;1.93;1.83;;;2.60;99.90;;;;;;5024218;28;20675;-80
2021/01/14 01:33:13;;;;;;;1.93;1.83;;;2.70;99.90;;;;;;5027552;28;20230;-81
2021/01/14 01:35:38;;;;;;;2.73;1.60;;;2.70;99.90;;;;;;5043914;28;20156;-81
2021/01/14 01:38:04;;;;;;;2.50;1.73;;;2.70;99.90;;;;;;5061777;28;20282;-80
2021/01/14 01:40:30;;;;;;;1.57;1.47;;;2.70;99.90;;;;;;5062068;28;20187;-81
2021/01/14 01:42:56;;;;;;;2.50;2.10;;;2.80;99.90;;;;;;5062409;28;20508;-81
2021/01/14 01:45:22;;;;;;;4.07;2.00;;;2.80;99.90;;;;;;5044338;28;20156;-81
2021/01/14 01:47:48;;;;;;;3.27;1.40;;;2.80;99.90;;;;;;5061552;28;20557;-80
2021/01/14 01:50:14;;;;;;;1.70;1.60;;;2.80;99.90;;;;;;5027343;28;20238;-80
2021/01/14 01:52:40;;;;;;;1.40;1.30;;;2.80;99.90;;;;;;5062514;28;20440;-80
2021/01/14 01:55:07;;;;;;;1.30;1.20;;;2.80;99.90;;;;;;5062361;28;20395;-81
2021/01/14 01:57:33;;;;;;;3.43;1.90;;;2.80;99.90;;;;;;5062908;28;20445;-80
2021/01/14 01:59:59;;;;;;;1.40;1.30;;;2.70;99.90;;;;;;5065643;28;20399;-80
2021/01/14 02:02:27;;;;;;;1.47;1.37;;;2.70;99.90;;;;;;5072746;28;20383;-79
2021/01/14 02:04:54;;;;;;;1.77;1.67;;;2.70;99.90;;;;;;5071782;28;20161;-80
2021/01/14 02:07:40;;;;;;;1.50;1.40;;;2.70;99.90;;;;;;5044462;28;20397;-81
2021/01/14 02:10:24;;;;;;;2.23;2.00;;;2.70;99.90;;;;;;5064683;28;20856;-81
2021/01/14 02:13:23;;;;;;;14.43;1.50;;;2.80;99.90;;;;;;5049287;28;20390;-81
2021/01/14 02:15:50;;;;;;;1.87;1.30;;;2.80;99.90;;;;;;5066768;28;20394;-80
2021/01/14 02:18:18;;;;;;;1.30;1.20;;;2.80;99.90;;;;;;5068936;28;20458;-79
2021/01/14 02:20:48;;;;;;;1.40;1.30;;;2.80;99.90;;;;;;5052651;28;20533;-81
2021/01/14 02:23:48;;;;;;;1.77;1.67;;;2.80;99.90;;;;;;5053473;28;20395;-80
2021/01/14 02:26:25;;;;;;;5.50;1.13;;;2.80;99.90;;;;;;5070191;28;20395;-81
2021/01/14 02:28:53;;;;;;;2.17;1.30;;;2.70;99.90;;;;;;5052783;28;20807;-81
2021/01/14 02:31:20;;;;;;;1.20;1.10;;;2.70;99.90;;;;;;5019400;28;20399;-80
2021/01/14 02:33:48;;;;;;;4.10;2.40;;;2.70;99.90;;;;;;5036136;28;20425;-80
2021/01/14 02:36:14;;;;;;;1.40;1.30;;;2.70;99.90;;;;;;5070371;28;20414;-81
2021/01/14 02:38:40;;;;;;;1.70;1.60;;;2.70;99.90;;;;;;5070856;28;20867;-81
2021/01/14 02:41:06;;;;;;;4.13;1.70;;;2.60;99.90;;;;;;5070564;28;20521;-81
2021/01/14 02:43:32;;;;;;;1.20;1.10;;;2.60;99.90;;;;;;5068428;28;20203;-80
2021/01/14 02:45:58;;;;;;;1.20;1.10;;;2.70;99.90;;;;;;5031544;28;20186;-81
2021/01/14 02:48:32;;;;;;;2.00;1.80;;;2.60;99.90;;;;;;5067109;28;20171;-81
2021/01/14 02:51:02;;;;;;;2.77;1.30;;;2.60;99.90;;;;;;5050566;28;20395;-80
2021/01/14 02:53:30;;;;;;;4.93;1.33;;;2.60;99.90;;;;;;5053707;28;20855;-81
2021/01/14 02:55:56;;;;;;;1.90;1.60;;;2.60;99.90;;;;;;5067346;28;20395;-81
2021/01/14 02:58:22;;;;;;;2.97;1.43;;;2.70;99.90;;;;;;5063735;28;20417;-81
2021/01/14 03:00:48;;;;;;;2.37;1.47;;;2.60;99.90;;;;;;5046227;28;20196;-81
2021/01/14 03:03:14;;;;;;;1.63;1.53;;;2.60;99.90;;;;;;5046511;28;20167;-80
2021/01/14 03:05:40;;;;;;;1.93;1.40;;;2.60;99.90;;;;;;5064424;28;20407;-81
2021/01/14 03:08:05;;;;;;;2.03;1.80;;;2.60;99.90;;;;;;5064258;28;20165;-81
2021/01/14 03:10:31;;;;;;;1.97;1.13;;;2.60;99.90;;;;;;5045997;28;20199;-81
2021/01/14 03:12:57;;;;;;;2.70;2.50;;;2.60;99.90;;;;;;5063588;28;20621;-80
2021/01/14 03:15:23;;;;;;;1.57;1.10;;;2.60;99.90;;;;;;5063385;28;20251;-81
2021/01/14 03:17:49;;;;;;;1.80;1.47;;;2.60;99.90;;;;;;5064351;28;20279;-81
2021/01/14 03:20:15;;;;;;;1.83;1.33;;;2.70;99.90;;;;;;5047747;28;20255;-80
2021/01/14 03:22:41;;;;;;;1.30;1.20;;;2.70;99.90;;;;;;5067884;28;20414;-78
2021/01/14 03:25:10;;;;;;;1.33;1.23;;;2.70;99.90;;;;;;5078735;28;20160;-78
2021/01/14 03:27:38;;;;;;;7.03;1.60;;;2.70;99.90;;;;;;5061389;28;20390;-78
2021/01/14 03:30:06;;;;;;;1.40;1.30;;;2.70;99.90;;;;;;5044845;28;20414;-79
2021/01/14 03:32:31;;;;;;;1.50;1.40;;;2.70;99.90;;;;;;5066734;28;20439;-80
2021/01/14 03:35:01;;;;;;;2.37;1.50;;;2.70;99.90;;;;;;5046406;28;20450;-80
2021/01/14 03:37:27;;;;;;;1.93;1.20;;;2.70;99.90;;;;;;5044103;28;20404;-80
2021/01/14 03:39:53;;;;;;;10.40;1.50;;;2.60;99.90;;;;;;5043217;28;20423;-80
2021/01/14 03:42:21;;;;;;;1.10;1.00;;;2.60;99.90;;;;;;5042860;28;20446;-80
2021/01/14 03:44:47;;;;;;;4.30;1.57;;;2.60;99.90;;;;;;5009028;28;20396;-80
2021/01/14 03:47:13;;;;;;;3.90;1.80;;;2.50;99.90;;;;;;5042929;28;20408;-80
2021/01/14 03:49:40;;;;;;;21.93;1.60;;;2.50;99.90;;;;;;5043025;28;20514;-80
2021/01/14 03:52:09;;;;;;;3.43;1.50;;;2.50;99.90;;;;;;5043520;28;20443;-79
2021/01/14 03:54:35;;;;;;;2.10;1.10;;;2.50;99.90;;;;;;5042737;28;20492;-78
2021/01/14 03:57:01;;;;;;;1.30;0.90;;;2.50;99.90;;;;;;5042273;28;20396;-80
2021/01/14 03:59:26;;;;;;;1.90;1.30;;;2.50;99.90;;;;;;5041521;28;20161;-78
2021/01/14 04:01:58;;;;;;;1.33;1.23;;;2.40;99.90;;;;;;5023884;28;20192;-80
2021/01/14 04:04:24;;;;;;;3.90;1.57;;;2.50;99.90;;;;;;5042294;28;20168;-80
2021/01/14 04:06:50;;;;;;;3.03;2.83;;;2.50;99.90;;;;;;5023935;28;20884;-79
2021/01/14 04:09:16;;;;;;;17.90;1.60;;;2.40;99.90;;;;;;5025534;28;20625;-80
2021/01/14 04:11:42;;;;;;;1.17;1.10;;;2.40;99.90;;;;;;5043593;28;20161;-80
2021/01/14 04:14:07;;;;;;;1.47;1.20;;;2.40;99.90;;;;;;5026312;28;20427;-80
2021/01/14 04:16:33;;;;;;;3.77;1.93;;;2.40;99.90;;;;;;5025878;28;20227;-80
2021/01/14 04:18:59;;;;;;;2.63;1.53;;;2.30;99.90;;;;;;5024562;28;20179;-80
2021/01/14 04:21:27;;;;;;;5.30;1.20;;;2.30;99.90;;;;;;5025447;28;20195;-80
2021/01/14 04:23:52;;;;;;;3.13;1.40;;;2.30;99.90;;;;;;5042940;28;20164;-79
2021/01/14 04:26:18;;;;;;;1.10;1.00;;;2.30;99.90;;;;;;5042392;28;20384;-80
2021/01/14 04:28:44;;;;;;;1.70;1.60;;;2.30;99.90;;;;;;5024034;28;20168;-79
2021/01/14 04:31:12;;;;;;;1.77;1.47;;;2.30;99.90;;;;;;5040643;28;20169;-81
2021/01/14 04:33:38;;;;;;;20.77;2.10;;;2.30;99.90;;;;;;5013381;28;20310;-79
2021/01/14 04:36:05;;;;;;;1.93;1.40;;;2.30;99.90;;;;;;5010497;28;20401;-79
2021/01/14 04:38:31;;;;;;;0.90;0.90;;;2.20;99.90;;;;;;5061333;28;20480;-77
2021/01/14 04:40:59;;;;;;;1.33;1.23;;;2.30;99.90;;;;;;5043609;28;20481;-81
2021/01/14 04:43:27;;;;;;;1.30;1.20;;;2.30;99.90;;;;;;5043014;28;20385;-78
2021/01/14 04:45:55;;;;;;;1.40;1.30;;;2.40;99.90;;;;;;5060565;28;20389;-80
2021/01/14 04:48:22;;;;;;;5.33;1.30;;;2.40;99.90;;;;;;5060608;28;20406;-81
2021/01/14 04:50:49;;;;;;;5.10;1.70;;;2.40;99.90;;;;;;5061902;28;20395;-80
2021/01/14 04:53:19;;;;;;;1.90;1.10;;;2.30;99.90;;;;;;5060471;28;20403;-78
2021/01/14 04:55:47;;;;;;;2.30;1.50;;;2.30;99.90;;;;;;5061381;28;20424;-79
2021/01/14 04:58:16;;;;;;;2.20;1.30;;;2.20;99.90;;;;;;5040104;28;20404;-80
2021/01/14 05:00:51;;;;;;;1.30;1.20;;;2.20;99.90;;;;;;5040731;28;20413;-81
2021/01/14 05:03:26;;;;;;;1.30;1.20;;;2.30;99.90;;;;;;5055874;28;20408;-81
2021/01/14 05:05:53;;;;;;;1.40;1.30;;;2.20;99.90;;;;;;5039268;28;20486;-79
2021/01/14 05:08:27;;;;;;;1.67;1.30;;;2.20;99.90;;;;;;5052452;28;20398;-79
2021/01/14 05:10:54;;;;;;;1.60;1.50;;;2.30;99.90;;;;;;5049088;28;20399;-82
2021/01/14 05:13:21;;;;;;;2.50;1.20;;;2.30;99.90;;;;;;5043279;28;20422;-81
2021/01/14 05:15:48;;;;;;;2.80;1.47;;;2.20;99.90;;;;;;5045599;28;20803;-80
2021/01/14 05:18:14;;;;;;;2.10;1.50;;;2.20;99.90;;;;;;5044926;28;20438;-80
2021/01/14 05:20:40;;;;;;;1.30;1.20;;;2.20;99.90;;;;;;5047005;28;20447;-81
2021/01/14 05:23:06;;;;;;;1.30;1.20;;;2.20;99.90;;;;;;5048553;28;20438;-81
2021/01/14 05:25:33;;;;;;;1.53;1.43;;;2.20;99.90;;;;;;5047459;28;20157;-81
2021/01/14 05:28:15;;;;;;;2.03;1.53;;;2.10;99.90;;;;;;5041863;28;20514;-81
2021/01/14 05:30:42;;;;;;;1.30;1.20;;;2.10;99.90;;;;;;5041464;28;20396;-81
2021/01/14 05:33:20;;;;;;;1.40;1.30;;;2.10;99.90;;;;;;5032046;28;20458;-81
2021/01/14 05:35:48;;;;;;;1.20;1.10;;;2.20;99.90;;;;;;4961265;28;20407;-81
2021/01/14 05:38:23;;;;;;;1.17;1.07;;;2.20;99.90;;;;;;5043756;28;20415;-81
2021/01/14 05:43:30;;;;;;;3.90;1.27;;;2.20;99.90;;;;;;4961404;28;20403;-81
2021/01/14 05:46:16;;;;;;;4.10;1.20;;;2.20;99.90;;;;;;4964218;29;20407;-81
2021/01/14 05:48:43;;;;;;;2.90;1.27;;;2.20;99.90;;;;;;4964908;28;20258;-79
2021/01/14 05:51:19;;;;;;;1.83;1.33;;;2.10;99.90;;;;;;4965212;28;20400;-81
2021/01/14 05:54:13;;;;;;;3.63;1.20;;;2.20;99.90;;;;;;4971418;28;20445;-81
2021/01/14 05:56:47;;;;;;;2.03;1.10;;;2.20;99.90;;;;;;4983758;28;20422;-81
2021/01/14 05:59:17;;;;;;;1.10;1.00;;;2.20;99.90;;;;;;5049237;28;20410;-82
2021/01/14 06:01:55;;;;;;;7.90;1.33;;;2.20;99.90;;;;;;5050893;28;20871;-81
2021/01/14 06:04:24;;;;;;;1.83;1.63;;;2.20;99.90;;;;;;4984997;28;20433;-81
2021/01/14 06:06:52;;;;;;;1.83;1.20;;;2.20;99.90;;;;;;4984783;28;20409;-81
2021/01/14 06:09:19;;;;;;;2.27;2.13;;;2.20;99.90;;;;;;4983765;28;20422;-80
2021/01/14 06:11:46;;;;;;;1.50;1.37;;;2.20;99.90;;;;;;5051386;28;20424;-81
2021/01/14 06:14:27;;;;;;;1.40;1.30;;;2.20;99.90;;;;;;5051066;28;20433;-81
2021/01/14 06:16:55;;;;;;;3.13;1.23;;;2.10;99.90;;;;;;4984075;28;20373;-81
2021/01/14 06:19:25;;;;;;;2.50;1.33;;;2.20;99.90;;;;;;5050746;28;20422;-81
2021/01/14 06:21:55;;;;;;;2.40;1.53;;;2.10;99.90;;;;;;4983954;28;20420;-81
2021/01/14 06:24:24;;;;;;;1.43;1.33;;;2.10;99.90;;;;;;5049049;28;20489;-81
2021/01/14 06:27:11;;;;;;;1.20;1.10;;;2.10;99.90;;;;;;4983121;28;20445;-81
2021/01/14 06:29:39;;;;;;;1.30;1.20;;;2.10;99.90;;;;;;5040333;28;20403;-80
2021/01/14 06:32:08;;;;;;;8.43;1.87;;;2.10;99.90;;;;;;5050349;28;20417;-81
2021/01/14 06:34:37;;;;;;;1.30;1.20;;;2.10;99.90;;;;;;4983075;28;20803;-81
2021/01/14 06:37:12;;;;;;;2.47;1.67;;;2.10;99.90;;;;;;4983762;28;20407;-81
2021/01/14 06:39:43;;;;;;;2.63;1.60;;;2.00;99.90;;;;;;4982580;28;20402;-81
2021/01/14 06:42:22;;;;;;;6.23;1.87;;;2.10;99.90;;;;;;4982337;28;20428;-79
2021/01/14 06:44:51;;;;;;;1.10;1.00;;;2.10;99.90;;;;;;4982932;28;20481;-81
2021/01/14 06:47:32;;;;;;;5.53;2.10;;;2.10;99.90;;;;;;4991778;28;20414;-81
2021/01/14 06:50:19;;;;;;;1.57;1.30;;;2.00;99.90;;;;;;5048583;28;20394;-80
2021/01/14 06:53:09;;;;;;;1.40;1.30;;;2.00;99.90;;;;;;5048176;28;20402;-80
2021/01/14 06:55:37;;;;;;;1.63;1.50;;;2.00;99.90;;;;;;4980952;28;20493;-81
2021/01/14 06:58:09;;;;;;;5.20;1.30;;;2.00;99.90;;;;;;5046638;28;20410;-80
2021/01/14 07:00:39;;;;;;;5.43;1.60;;;2.00;99.90;;;;;;4981464;28;20463;-82
2021/01/14 07:03:19;;;;;;;1.50;1.40;;;2.10;99.90;;;;;;4980479;28;20387;-81
2021/01/14 07:06:06;;;;;;;3.10;2.17;;;2.10;99.90;;;;;;4965493;28;20477;-78
2021/01/14 07:08:40;;;;;;;3.40;1.63;;;2.10;99.90;;;;;;5020865;28;20490;-80
2021/01/14 07:11:09;;;;;;;3.10;1.93;;;2.20;99.90;;;;;;5027721;28;20427;-81
2021/01/14 07:13:45;;;;;;;2.37;1.47;;;2.20;99.90;;;;;;5027045;28;20496;-81
2021/01/14 07:16:14;;;;;;;3.20;2.73;;;2.20;99.90;;;;;;4980711;28;20758;-81
2021/01/14 07:18:41;;;;;;;2.93;2.30;;;2.20;99.90;;;;;;4973891;28;20385;-80
2021/01/14 07:21:25;;;;;;;6.83;2.00;;;2.20;99.90;;;;;;5027497;28;20932;-80
2021/01/14 07:24:00;;;;;;;3.93;1.70;;;2.00;99.90;;;;;;5044006;28;20546;-81
2021/01/14 07:26:27;;;;;;;3.10;1.60;;;2.10;99.90;;;;;;4981465;28;20734;-80
2021/01/14 07:28:54;;;;;;;2.50;1.87;;;2.10;99.90;;;;;;5050344;28;20395;-81
2021/01/14 07:31:27;;;;;;;2.40;1.97;;;2.10;99.90;;;;;;5034314;28;20380;-80
2021/01/14 07:33:55;;;;;;;2.07;1.87;;;2.10;99.90;;;;;;4985306;28;20484;-80
2021/01/14 07:36:24;;;;;;;4.50;1.93;;;2.00;99.90;;;;;;5057298;28;20395;-79
2021/01/14 07:38:55;;;;;;;2.03;1.93;;;2.00;99.90;;;;;;4994134;28;20417;-80
2021/01/14 07:41:22;;;;;;;1.90;1.80;;;2.10;99.90;;;;;;4987127;28;20454;-80
2021/01/14 07:43:50;;;;;;;2.00;1.90;;;2.00;99.90;;;;;;5042351;28;20814;-81
2021/01/14 07:46:20;;;;;;;1.77;1.60;;;2.10;99.90;;;;;;5044386;28;20393;-80
2021/01/14 07:48:47;;;;;;;2.60;2.03;;;2.10;99.90;;;;;;4986876;28;20422;-80
2021/01/14 07:51:14;;;;;;;11.70;2.47;;;2.10;99.90;;;;;;5026325;28;20497;-79
2021/01/14 07:53:39;;;;;;;2.90;2.07;;;2.10;99.90;;;;;;5032429;28;20460;-80
2021/01/14 07:56:27;;;;;;;2.10;2.00;;;2.20;99.90;;;;;;4981214;28;20419;-81
2021/01/14 07:58:56;;;;;;;5.70;2.43;;;2.10;99.90;;;;;;5055207;28;20490;-80
2021/01/14 08:01:22;;;;;;;2.43;2.23;;;2.10;99.90;;;;;;5025911;28;20937;-80
2021/01/14 08:03:48;;;;;;;3.80;2.30;;;2.10;99.90;;;;;;5051014;28;20389;-81
2021/01/14 08:06:18;;;;;;;2.70;1.93;;;2.20;99.90;;;;;;5015895;28;20419;-81
2021/01/14 08:09:05;;;;;;;2.43;2.20;;;2.20;99.90;;;;;;5041504;28;20436;-79
2021/01/14 08:11:33;;;;;;;2.40;1.90;;;2.20;99.90;;;;;;4977357;28;20401;-81
2021/01/14 08:14:17;;;;;;;17.57;2.93;;;2.20;99.90;;;;;;5031239;28;20948;-80
2021/01/14 08:16:52;;;;;;;5.70;1.90;;;2.20;99.90;;;;;;4979736;28;20429;-82
2021/01/14 08:19:22;;;;;;;17.87;2.13;;;2.20;99.90;;;;;;4976232;28;20496;-80
2021/01/14 08:22:06;;;;;;;2.37;1.73;;;2.20;99.90;;;;;;4968127;28;20886;-79
2021/01/14 08:24:37;;;;;;;2.67;1.80;;;2.30;99.90;;;;;;5023509;28;20424;-78
2021/01/14 08:27:05;;;;;;;1.93;1.73;;;2.30;99.90;;;;;;5042730;28;20384;-80
2021/01/14 08:29:33;;;;;;;2.07;1.93;;;2.30;99.90;;;;;;4984644;28;20783;-79
2021/01/14 08:32:00;;;;;;;3.10;2.90;;;2.30;99.90;;;;;;4983453;28;20437;-81
2021/01/14 08:34:26;;;;;;;1.80;1.70;;;2.30;99.90;;;;;;4975005;28;20466;-80
2021/01/14 08:36:54;;;;;;;2.60;2.13;;;2.30;99.90;;;;;;4983131;28;20487;-80
2021/01/14 08:39:23;;;;;;;5.73;2.27;;;2.30;99.90;;;;;;4978634;28;20771;-80
2021/01/14 08:41:50;;;;;;;3.03;2.73;;;2.30;99.90;;;;;;5018751;28;20461;-80
2021/01/14 08:44:17;;;;;;;13.73;4.30;;;2.30;99.90;;;;;;5054518;28;20421;-80
2021/01/14 08:46:48;;;;;;;2.57;2.17;;;2.20;99.90;;;;;;5042751;28;20422;-81
2021/01/14 08:49:16;;;;;;;2.67;2.47;;;2.30;99.90;;;;;;5049216;28;20385;-80
2021/01/14 08:51:43;;;;;;;2.07;1.70;;;2.30;99.90;;;;;;5018206;28;20401;-81
2021/01/14 08:54:10;;;;;;;3.67;2.43;;;2.40;99.90;;;;;;5027992;28;20910;-79
2021/01/14 08:56:38;;;;;;;2.83;2.07;;;2.40;99.90;;;;;;5044778;28;20418;-78
2021/01/14 08:59:19;;;;;;;2.40;2.17;;;2.40;99.90;;;;;;4987364;28;20478;-78
2021/01/14 09:01:45;;;;;;;2.83;2.03;;;2.40;99.90;;;;;;5017348;28;20524;-80
2021/01/14 09:04:11;;;;;;;2.60;2.40;;;2.40;99.90;;;;;;5018335;28;20431;-80
2021/01/14 09:06:38;;;;;;;2.23;2.03;;;2.40;99.90;;;;;;5019319;28;20165;-79
2021/01/14 09:09:06;;;;;;;1.80;1.67;;;2.40;99.90;;;;;;5018127;28;20224;-80
2021/01/14 09:11:34;;;;;;;2.87;2.63;;;2.40;99.90;;;;;;5015580;28;20451;-79
2021/01/14 09:14:10;;;;;;;7.07;3.70;;;2.40;99.90;;;;;;5014157;28;20432;-80
2021/01/14 09:16:37;;;;;;;6.47;1.70;;;2.40;99.90;;;;;;5007810;28;20420;-80
2021/01/14 09:19:19;;;;;;;5.23;2.63;;;2.50;99.90;;;;;;5018498;28;20792;-79
2021/01/14 09:21:45;;;;;;;36.03;3.33;;;2.50;99.90;;;;;;5000872;28;20478;-80
2021/01/14 09:24:13;;;;;;;2.85;2.40;;;2.50;99.90;;;;;;4986596;28;20994;-79
2021/01/14 09:26:41;;;;;;;4.30;2.13;;;2.60;99.90;;;;;;5020916;28;20245;-81
2021/01/14 09:29:12;;;;;;;2.63;1.93;;;2.60;99.90;;;;;;5028000;28;20464;-78
2021/01/14 09:31:39;;;;;;;2.40;2.20;;;2.60;99.90;;;;;;5052069;28;20430;-77
2021/01/14 09:34:06;;;;;;;1.83;1.50;;;2.60;99.90;;;;;;5024988;28;20597;-79
2021/01/14 09:36:34;;;;;;;4.37;2.30;;;2.60;99.90;;;;;;5023312;28;20397;-78
2021/01/14 09:39:02;;;;;;;2.77;2.57;;;2.60;99.90;;;;;;5054973;28;20422;-80
2021/01/14 09:41:36;;;;;;;3.93;2.63;;;2.60;99.90;;;;;;4981942;28;20873;-80
2021/01/14 09:44:04;;;;;;;7.47;3.10;;;2.60;99.90;;;;;;5045190;28;20755;-79
2021/01/14 09:46:35;;;;;;;2.53;2.10;;;2.60;99.90;;;;;;5042998;28;20426;-79
2021/01/14 09:49:09;;;;;;;2.00;1.80;;;2.70;99.90;;;;;;5040812;28;20549;-80
2021/01/14 09:51:35;;;;;;;4.53;2.37;;;2.60;99.90;;;;;;5041471;28;20438;-80
2021/01/14 09:54:04;;;;;;;1.67;1.53;;;2.60;99.90;;;;;;5000715;28;20487;-79
2021/01/14 09:56:33;;;;;;;3.97;1.60;;;2.70;99.90;;;;;;5022306;28;20456;-79
2021/01/14 09:59:26;;;;;;;1.90;1.70;;;2.80;99.90;;;;;;5016860;28;20412;-78
2021/01/14 10:01:57;;;;;;;3.63;2.90;;;2.80;99.90;;;;;;5026364;28;20520;-80
2021/01/14 10:04:26;;;;;;;8.63;3.10;;;2.80;99.90;;;;;;5056675;28;20416;-81
2021/01/14 10:06:57;;;;;;;1.93;1.77;;;2.80;99.90;;;;;;5038943;28;20410;-81
2021/01/14 10:09:24;;;;;;;10.33;3.63;;;2.80;99.90;;;;;;5034423;28;20453;-80
2021/01/14 10:11:51;;;;;;;7.87;4.63;;;2.70;99.90;;;;;;4986020;28;20416;-81
2021/01/14 10:14:18;;;;;;;3.10;2.80;;;2.80;99.90;;;;;;4982818;28;20452;-79
2021/01/14 10:16:45;;;;;;;2.17;1.97;;;3.00;99.90;;;;;;5025280;28;20418;-80
2021/01/14 10:19:15;;;;;;;2.03;1.83;;;3.10;99.90;;;;;;5022148;28;20385;-81
2021/01/14 10:21:41;;;;;;;7.13;5.80;;;3.10;99.90;;;;;;4982692;28;20461;-80
2021/01/14 10:24:22;;;;;;;3.73;3.00;;;3.10;99.90;;;;;;5046186;28;20810;-81
2021/01/14 10:26:48;;;;;;;1.77;1.67;;;3.10;99.90;;;;;;5048488;28;20433;-80
2021/01/14 10:29:29;;;;;;;12.50;6.30;;;3.10;99.90;;;;;;4988301;28;20422;-80
2021/01/14 10:32:03;;;;;;;4.97;2.67;;;3.20;99.90;;;;;;4983114;28;20400;-81
2021/01/14 10:34:42;;;;;;;9.83;3.27;;;3.10;99.90;;;;;;5048215;28;20522;-81
2021/01/14 10:37:19;;;;;;;2.27;1.90;;;3.10;99.90;;;;;;5028659;28;20482;-81
2021/01/14 10:39:45;;;;;;;7.47;2.43;;;3.00;99.90;;;;;;4978819;28;20400;-79
2021/01/14 10:42:27;;;;;;;3.40;3.10;;;3.00;99.90;;;;;;4969564;28;20509;-80
2021/01/14 10:45:17;;;;;;;2.70;2.50;;;2.90;99.90;;;;;;5012838;28;20187;-80
2021/01/14 10:47:43;;;;;;;5.17;3.80;;;3.00;99.90;;;;;;5026655;28;20473;-78
2021/01/14 10:50:26;;;;;;;4.50;3.83;;;3.20;99.90;;;;;;5021607;28;20398;-80
2021/01/14 10:53:03;;;;;;;6.53;2.90;;;4.40;99.90;;;;;;5021993;28;20431;-80
2021/01/14 10:55:30;;;;;;;2.87;2.60;;;4.30;99.90;;;;;;5021540;28;20413;-80
2021/01/14 10:57:57;;;;;;;3.97;2.30;;;4.20;99.90;;;;;;5022996;28;20438;-79
2021/01/14 11:00:26;;;;;;;3.80;2.90;;;4.10;99.90;;;;;;5037610;28;20510;-80
2021/01/14 11:03:02;;;;;;;2.07;1.97;;;4.00;99.90;;;;;;5021455;28;20455;-80
2021/01/14 11:05:42;;;;;;;3.93;3.40;;;3.90;99.90;;;;;;5037447;28;20406;-80
2021/01/14 11:08:10;;;;;;;6.23;2.37;;;3.60;99.90;;;;;;5027281;28;20593;-80
2021/01/14 11:10:36;;;;;;;3.97;2.70;;;3.60;99.90;;;;;;5034995;28;20440;-80
2021/01/14 11:13:05;;;;;;;3.87;2.80;;;3.60;99.90;;;;;;5029081;28;20420;-78
2021/01/14 11:15:31;;;;;;;4.20;3.13;;;3.50;99.90;;;;;;5041369;28;20398;-80
2021/01/14 11:17:59;;;;;;;3.40;3.10;;;3.60;99.90;;;;;;5029917;28;20426;-80
2021/01/14 11:20:25;;;;;;;7.43;4.83;;;3.50;99.90;;;;;;4967031;28;20510;-80
2021/01/14 11:22:51;;;;;;;4.80;3.23;;;3.50;99.90;;;;;;5024223;28;20446;-80
2021/01/14 11:25:16;;;;;;;3.27;2.20;;;3.50;99.90;;;;;;4992125;28;20225;-80
2021/01/14 11:27:42;;;;;;;2.40;2.20;;;3.50;99.90;;;;;;5016373;28;20192;-80
2021/01/14 11:30:08;;;;;;;8.80;2.77;;;3.40;99.90;;;;;;4979278;28;20251;-78
2021/01/14 11:32:34;;;;;;;3.70;2.77;;;3.40;99.90;;;;;;4981415;28;20202;-81
2021/01/14 11:35:00;;;;;;;3.97;2.80;;;3.40;99.90;;;;;;5041731;28;20990;-80
2021/01/14 11:37:26;;;;;;;4.97;3.20;;;3.40;99.90;;;;;;5045589;28;20180;-80
2021/01/14 11:39:51;;;;;;;9.47;8.50;;;3.30;99.90;;;;;;4997398;28;20176;-80
2021/01/14 11:42:17;;;;;;;3.70;3.40;;;3.30;99.90;;;;;;5047138;28;20254;-79
2021/01/14 11:44:43;;;;;;;2.93;2.63;;;3.40;99.90;;;;;;5017959;28;20240;-80
2021/01/14 11:47:09;;;;;;;2.33;2.13;;;3.30;99.90;;;;;;4980910;28;20190;-78
2021/01/14 11:49:34;;;;;;;4.50;2.37;;;3.40;99.90;;;;;;5041614;28;20248;-80
2021/01/14 11:52:00;;;;;;;3.10;2.83;;;3.40;99.90;;;;;;4984793;28;20189;-79
2021/01/14 11:54:26;;;;;;;7.53;2.77;;;3.40;99.90;;;;;;5002241;28;20197;-81
2021/01/14 11:56:52;;;;;;;2.73;2.53;;;3.40;99.90;;;;;;5060176;28;20205;-79
2021/01/14 11:59:18;;;;;;;5.60;4.20;;;3.30;99.90;;;;;;4974900;28;20683;-79
2021/01/14 12:01:44;;;;;;;4.00;3.23;;;3.30;99.90;;;;;;5040951;28;20858;-80
2021/01/14 12:04:10;;;;;;;4.80;2.90;;;3.30;99.90;;;;;;4993303;28;20167;-78
2021/01/14 12:06:36;;;;;;;2.10;2.00;;;3.30;99.90;;;;;;5032975;28;20453;-79
2021/01/14 12:09:02;;;;;;;6.33;3.77;;;3.30;99.90;;;;;;5039039;28;20167;-79
2021/01/14 12:11:27;;;;;;;2.93;2.57;;;3.20;99.90;;;;;;5035400;28;20202;-80
2021/01/14 12:13:54;;;;;;;3.40;3.10;;;3.20;99.90;;;;;;5042890;28;20388;-80
2021/01/14 12:16:20;;;;;;;2.40;2.20;;;3.20;99.90;;;;;;5020720;28;20171;-80
2021/01/14 12:18:46;;;;;;;19.77;8.67;;;3.20;99.90;;;;;;5004127;28;20457;-80
2021/01/14 12:21:16;;;;;;;7.70;5.03;;;3.40;99.90;;;;;;4974494;28;20677;-80
2021/01/14 12:23:46;;;;;;;4.80;3.80;;;3.40;99.90;;;;;;4978223;28;20925;-79
2021/01/14 12:26:12;;;;;;;6.03;3.77;;;3.30;99.90;;;;;;5065157;28;20424;-80
2021/01/14 12:28:38;;;;;;;3.50;2.77;;;3.20;99.90;;;;;;4988407;28;20430;-80
2021/01/14 12:31:04;;;;;;;5.13;2.77;;;3.30;99.90;;;;;;5030321;28;20404;-81
2021/01/14 12:33:30;;;;;;;8.60;3.70;;;3.20;99.90;;;;;;4976056;28;20218;-80
2021/01/14 12:35:56;;;;;;;2.50;2.23;;;3.10;99.90;;;;;;4986562;28;20412;-80
2021/01/14 12:38:22;;;;;;;2.73;2.53;;;3.20;99.90;;;;;;4973368;28;20957;-80
2021/01/14 12:40:48;;;;;;;3.60;2.73;;;3.20;99.90;;;;;;5045775;28;20284;-80
2021/01/14 12:43:14;;;;;;;9.60;2.70;;;3.20;99.90;;;;;;4982977;28;20308;-80
2021/01/14 12:45:40;;;;;;;2.50;2.30;;;3.20;99.90;;;;;;4993449;28;20426;-80
2021/01/14 12:48:06;;;;;;;9.13;5.27;;;3.30;99.90;;;;;;4999361;28;20365;-79
2021/01/14 12:50:32;;;;;;;6.57;2.33;;;3.30;99.90;;;;;;4990348;28;20242;-80
2021/01/14 12:52:59;;;;;;;13.47;6.30;;;3.30;99.90;;;;;;4979671;28;20423;-77
2021/01/14 12:55:24;;;;;;;9.23;4.80;;;3.30;99.90;;;;;;5011101;28;20171;-78
2021/01/14 12:57:50;;;;;;;4.20;3.67;;;3.30;99.90;;;;;;5034837;28;20410;-80
2021/01/14 13:00:16;;;;;;;4.00;2.90;;;3.20;99.90;;;;;;5001964;28;20235;-79
2021/01/14 13:02:42;;;;;;;4.50;2.20;;;3.30;99.90;;;;;;4977603;28;20645;-79
2021/01/14 13:05:10;;;;;;;4.67;2.60;;;3.20;99.90;;;;;;4998551;28;20444;-79
2021/01/14 13:07:36;;;;;;;2.70;2.50;;;3.20;99.90;;;;;;5041957;28;20419;-78
2021/01/14 13:10:04;;;;;;;3.30;3.00;;;3.20;99.90;;;;;;4974836;28;20437;-78
2021/01/14 13:12:32;;;;;;;2.50;2.30;;;3.20;99.90;;;;;;4975139;28;20852;-79